sensor_id;sensor_type;location;lat;lon;timestamp;P1;durP1;ratioP1;P2;durP2;ratioP2
71969;SDS011;59838;52.152;5.436;2022-08-19T00:00:30;5.40;;;4.88;;
71969;SDS011;59838;52.152;5.436;2022-08-19T00:03:04;4.60;;;3.65;;
71969;SDS011;59838;52.152;5.436;2022-08-19T00:05:37;4.20;;;3.78;;
71969;SDS011;59838;52.152;5.436;2022-08-19T00:08:11;4.28;;;3.35;;
71969;SDS011;59838;52.152;5.436;2022-08-19T00:10:38;7.53;;;3.40;;
71969;SDS011;59838;52.152;5.436;2022-08-19T00:13:10;4.65;;;2.55;;
71969;SDS011;59838;52.152;5.436;2022-08-19T00:15:37;3.72;;;2.60;;
71969;SDS011;59838;52.152;5.436;2022-08-19T00:18:11;3.60;;;2.70;;
71969;SDS011;59838;52.152;5.436;2022-08-19T00:20:37;4.60;;;3.08;;
71969;SDS011;59838;52.152;5.436;2022-08-19T00:23:12;3.57;;;2.87;;
71969;SDS011;59838;52.152;5.436;2022-08-19T00:25:45;5.80;;;3.60;;
71969;SDS011;59838;52.152;5.436;2022-08-19T00:28:20;4.15;;;2.80;;
71969;SDS011;59838;52.152;5.436;2022-08-19T00:30:53;4.43;;;3.65;;
71969;SDS011;59838;52.152;5.436;2022-08-19T00:33:19;4.45;;;3.67;;
71969;SDS011;59838;52.152;5.436;2022-08-19T00:35:55;3.77;;;3.33;;
71969;SDS011;59838;52.152;5.436;2022-08-19T00:38:22;60.85;;;3.28;;
71969;SDS011;59838;52.152;5.436;2022-08-19T00:41:03;8.07;;;1.80;;
71969;SDS011;59838;52.152;5.436;2022-08-19T00:43:39;2.25;;;1.65;;
71969;SDS011;59838;52.152;5.436;2022-08-19T00:46:07;4.10;;;3.08;;
71969;SDS011;59838;52.152;5.436;2022-08-19T00:48:41;4.03;;;2.90;;
71969;SDS011;59838;52.152;5.436;2022-08-19T00:51:07;4.40;;;2.97;;
71969;SDS011;59838;52.152;5.436;2022-08-19T00:53:41;2.03;;;1.75;;
71969;SDS011;59838;52.152;5.436;2022-08-19T00:56:11;3.03;;;2.08;;
71969;SDS011;59838;52.152;5.436;2022-08-19T00:58:38;6.63;;;3.67;;
71969;SDS011;59838;52.152;5.436;2022-08-19T01:01:13;5.27;;;3.60;;
71969;SDS011;59838;52.152;5.436;2022-08-19T01:03:40;5.03;;;3.97;;
71969;SDS011;59838;52.152;5.436;2022-08-19T01:06:23;4.55;;;3.83;;
71969;SDS011;59838;52.152;5.436;2022-08-19T01:08:58;4.50;;;3.03;;
71969;SDS011;59838;52.152;5.436;2022-08-19T01:11:33;2.63;;;2.40;;
71969;SDS011;59838;52.152;5.436;2022-08-19T01:14:10;5.87;;;2.80;;
71969;SDS011;59838;52.152;5.436;2022-08-19T01:16:43;3.17;;;2.50;;
71969;SDS011;59838;52.152;5.436;2022-08-19T01:19:27;4.13;;;3.35;;
71969;SDS011;59838;52.152;5.436;2022-08-19T01:25:28;4.72;;;2.42;;
71969;SDS011;59838;52.152;5.436;2022-08-19T01:28:05;5.17;;;2.50;;
71969;SDS011;59838;52.152;5.436;2022-08-19T01:30:39;5.30;;;2.75;;
71969;SDS011;59838;52.152;5.436;2022-08-19T01:33:16;3.70;;;2.35;;
71969;SDS011;59838;52.152;5.436;2022-08-19T01:35:50;2.70;;;2.33;;
71969;SDS011;59838;52.152;5.436;2022-08-19T01:38:24;7.57;;;2.10;;
71969;SDS011;59838;52.152;5.436;2022-08-19T01:41:10;6.37;;;1.90;;
71969;SDS011;59838;52.152;5.436;2022-08-19T01:43:43;4.40;;;2.10;;
71969;SDS011;59838;52.152;5.436;2022-08-19T01:46:31;4.30;;;2.63;;
71969;SDS011;59838;52.152;5.436;2022-08-19T01:49:05;3.40;;;2.50;;
71969;SDS011;59838;52.152;5.436;2022-08-19T01:51:33;3.20;;;2.53;;
71969;SDS011;59838;52.152;5.436;2022-08-19T01:54:08;3.20;;;2.00;;
71969;SDS011;59838;52.152;5.436;2022-08-19T01:56:52;2.28;;;1.85;;
71969;SDS011;59838;52.152;5.436;2022-08-19T01:59:23;3.72;;;2.13;;
71969;SDS011;59838;52.152;5.436;2022-08-19T02:01:56;3.42;;;1.55;;
71969;SDS011;59838;52.152;5.436;2022-08-19T02:04:23;3.50;;;2.20;;
71969;SDS011;59838;52.152;5.436;2022-08-19T02:06:57;2.40;;;1.33;;
71969;SDS011;59838;52.152;5.436;2022-08-19T02:09:24;2.35;;;1.20;;
71969;SDS011;59838;52.152;5.436;2022-08-19T02:11:57;1.50;;;1.10;;
71969;SDS011;59838;52.152;5.436;2022-08-19T02:14:24;1.30;;;0.57;;
71969;SDS011;59838;52.152;5.436;2022-08-19T02:16:50;2.90;;;0.70;;
71969;SDS011;59838;52.152;5.436;2022-08-19T02:19:23;0.80;;;0.40;;
71969;SDS011;59838;52.152;5.436;2022-08-19T02:21:50;0.77;;;0.52;;
71969;SDS011;59838;52.152;5.436;2022-08-19T02:24:23;2.92;;;1.02;;
71969;SDS011;59838;52.152;5.436;2022-08-19T02:26:50;1.30;;;0.60;;
71969;SDS011;59838;52.152;5.436;2022-08-19T02:29:23;1.23;;;0.73;;
71969;SDS011;59838;52.152;5.436;2022-08-19T02:31:56;1.07;;;0.50;;
71969;SDS011;59838;52.152;5.436;2022-08-19T02:34:29;1.85;;;1.08;;
71969;SDS011;59838;52.152;5.436;2022-08-19T02:36:55;3.22;;;1.10;;
71969;SDS011;59838;52.152;5.436;2022-08-19T02:39:29;2.22;;;0.90;;
71969;SDS011;59838;52.152;5.436;2022-08-19T02:41:55;1.52;;;0.80;;
71969;SDS011;59838;52.152;5.436;2022-08-19T02:44:29;2.00;;;1.20;;
71969;SDS011;59838;52.152;5.436;2022-08-19T02:46:57;1.90;;;1.15;;
71969;SDS011;59838;52.152;5.436;2022-08-19T02:49:30;3.15;;;1.52;;
71969;SDS011;59838;52.152;5.436;2022-08-19T02:52:00;2.30;;;1.75;;
71969;SDS011;59838;52.152;5.436;2022-08-19T02:54:33;2.58;;;1.58;;
71969;SDS011;59838;52.152;5.436;2022-08-19T02:57:00;2.10;;;1.43;;
71969;SDS011;59838;52.152;5.436;2022-08-19T02:59:33;2.25;;;1.33;;
71969;SDS011;59838;52.152;5.436;2022-08-19T03:02:00;2.13;;;1.10;;
71969;SDS011;59838;52.152;5.436;2022-08-19T03:04:26;2.95;;;1.20;;
71969;SDS011;59838;52.152;5.436;2022-08-19T03:06:59;1.70;;;1.20;;
71969;SDS011;59838;52.152;5.436;2022-08-19T03:09:37;1.77;;;1.10;;
71969;SDS011;59838;52.152;5.436;2022-08-19T03:12:11;2.05;;;0.90;;
71969;SDS011;59838;52.152;5.436;2022-08-19T03:14:37;1.33;;;0.80;;
71969;SDS011;59838;52.152;5.436;2022-08-19T03:17:11;1.77;;;1.00;;
71969;SDS011;59838;52.152;5.436;2022-08-19T03:19:38;36.97;;;2.33;;
71969;SDS011;59838;52.152;5.436;2022-08-19T03:22:05;2.07;;;0.80;;
71969;SDS011;59838;52.152;5.436;2022-08-19T03:24:39;1.35;;;0.93;;
71969;SDS011;59838;52.152;5.436;2022-08-19T03:27:13;1.67;;;1.02;;
71969;SDS011;59838;52.152;5.436;2022-08-19T03:29:46;3.83;;;1.20;;
71969;SDS011;59838;52.152;5.436;2022-08-19T03:32:19;10.32;;;1.23;;
71969;SDS011;59838;52.152;5.436;2022-08-19T03:34:58;3.73;;;0.80;;
71969;SDS011;59838;52.152;5.436;2022-08-19T03:37:25;2.80;;;0.90;;
71969;SDS011;59838;52.152;5.436;2022-08-19T03:39:59;1.63;;;1.23;;
71969;SDS011;59838;52.152;5.436;2022-08-19T03:42:25;2.80;;;1.55;;
71969;SDS011;59838;52.152;5.436;2022-08-19T03:45:19;3.72;;;1.70;;
71969;SDS011;59838;52.152;5.436;2022-08-19T03:47:54;2.80;;;1.60;;
71969;SDS011;59838;52.152;5.436;2022-08-19T03:50:21;1.90;;;1.30;;
71969;SDS011;59838;52.152;5.436;2022-08-19T03:52:48;2.03;;;1.30;;
71969;SDS011;59838;52.152;5.436;2022-08-19T03:55:23;2.17;;;1.30;;
71969;SDS011;59838;52.152;5.436;2022-08-19T03:57:49;3.90;;;1.70;;
71969;SDS011;59838;52.152;5.436;2022-08-19T04:00:29;7.00;;;2.53;;
71969;SDS011;59838;52.152;5.436;2022-08-19T04:02:55;12.43;;;1.83;;
71969;SDS011;59838;52.152;5.436;2022-08-19T04:05:29;17.25;;;2.88;;
71969;SDS011;59838;52.152;5.436;2022-08-19T04:07:55;14.25;;;2.95;;
71969;SDS011;59838;52.152;5.436;2022-08-19T04:10:37;4.72;;;2.75;;
71969;SDS011;59838;52.152;5.436;2022-08-19T04:13:04;5.70;;;2.67;;
71969;SDS011;59838;52.152;5.436;2022-08-19T04:15:43;5.13;;;3.55;;
71969;SDS011;59838;52.152;5.436;2022-08-19T04:18:10;14.70;;;3.92;;
71969;SDS011;59838;52.152;5.436;2022-08-19T04:20:44;11.77;;;3.80;;
71969;SDS011;59838;52.152;5.436;2022-08-19T04:23:12;9.70;;;4.47;;
71969;SDS011;59838;52.152;5.436;2022-08-19T04:25:40;13.10;;;4.20;;
71969;SDS011;59838;52.152;5.436;2022-08-19T04:28:25;8.15;;;4.47;;
71969;SDS011;59838;52.152;5.436;2022-08-19T04:30:59;11.05;;;4.25;;
71969;SDS011;59838;52.152;5.436;2022-08-19T04:33:25;7.72;;;3.85;;
71969;SDS011;59838;52.152;5.436;2022-08-19T04:35:59;8.95;;;4.15;;
71969;SDS011;59838;52.152;5.436;2022-08-19T04:38:26;25.30;;;4.43;;
71969;SDS011;59838;52.152;5.436;2022-08-19T04:40:59;8.40;;;4.20;;
71969;SDS011;59838;52.152;5.436;2022-08-19T04:43:44;5.90;;;4.25;;
71969;SDS011;59838;52.152;5.436;2022-08-19T04:46:21;6.90;;;4.55;;
71969;SDS011;59838;52.152;5.436;2022-08-19T04:49:05;6.38;;;4.53;;
71969;SDS011;59838;52.152;5.436;2022-08-19T04:51:40;9.47;;;4.53;;
71969;SDS011;59838;52.152;5.436;2022-08-19T04:54:16;9.57;;;4.63;;
71969;SDS011;59838;52.152;5.436;2022-08-19T04:57:03;7.78;;;4.75;;
71969;SDS011;59838;52.152;5.436;2022-08-19T04:59:39;17.38;;;5.25;;
71969;SDS011;59838;52.152;5.436;2022-08-19T05:02:06;12.73;;;5.35;;
71969;SDS011;59838;52.152;5.436;2022-08-19T05:04:34;8.23;;;4.47;;
71969;SDS011;59838;52.152;5.436;2022-08-19T05:07:11;6.07;;;4.75;;
71969;SDS011;59838;52.152;5.436;2022-08-19T05:09:45;7.07;;;4.95;;
71969;SDS011;59838;52.152;5.436;2022-08-19T05:12:23;7.45;;;4.80;;
71969;SDS011;59838;52.152;5.436;2022-08-19T05:14:57;9.82;;;5.75;;
71969;SDS011;59838;52.152;5.436;2022-08-19T05:17:25;18.87;;;4.80;;
71969;SDS011;59838;52.152;5.436;2022-08-19T05:19:56;9.23;;;3.80;;
71969;SDS011;59838;52.152;5.436;2022-08-19T05:22:49;9.80;;;4.28;;
71969;SDS011;59838;52.152;5.436;2022-08-19T05:25:17;5.68;;;3.92;;
71969;SDS011;59838;52.152;5.436;2022-08-19T05:27:52;5.75;;;4.53;;
71969;SDS011;59838;52.152;5.436;2022-08-19T05:30:25;4.97;;;4.10;;
71969;SDS011;59838;52.152;5.436;2022-08-19T05:33:11;4.43;;;3.95;;
71969;SDS011;59838;52.152;5.436;2022-08-19T05:35:45;5.72;;;4.45;;
71969;SDS011;59838;52.152;5.436;2022-08-19T05:38:12;5.50;;;4.32;;
71969;SDS011;59838;52.152;5.436;2022-08-19T05:40:45;7.43;;;4.82;;
71969;SDS011;59838;52.152;5.436;2022-08-19T05:43:13;7.13;;;4.37;;
71969;SDS011;59838;52.152;5.436;2022-08-19T05:45:42;5.93;;;4.60;;
71969;SDS011;59838;52.152;5.436;2022-08-19T05:48:15;6.78;;;5.20;;
71969;SDS011;59838;52.152;5.436;2022-08-19T05:50:46;7.82;;;5.82;;
71969;SDS011;59838;52.152;5.436;2022-08-19T05:53:23;6.63;;;4.82;;
71969;SDS011;59838;52.152;5.436;2022-08-19T05:55:57;6.10;;;5.23;;
71969;SDS011;59838;52.152;5.436;2022-08-19T05:58:31;7.82;;;6.55;;
71969;SDS011;59838;52.152;5.436;2022-08-19T06:00:59;7.35;;;6.63;;
71969;SDS011;59838;52.152;5.436;2022-08-19T06:03:36;6.78;;;6.07;;
71969;SDS011;59838;52.152;5.436;2022-08-19T06:06:03;8.82;;;7.22;;
71969;SDS011;59838;52.152;5.436;2022-08-19T06:08:38;8.83;;;7.30;;
71969;SDS011;59838;52.152;5.436;2022-08-19T06:14:17;11.63;;;8.93;;
71969;SDS011;59838;52.152;5.436;2022-08-19T06:16:52;11.57;;;9.80;;
71969;SDS011;59838;52.152;5.436;2022-08-19T06:19:32;16.25;;;10.88;;
71969;SDS011;59838;52.152;5.436;2022-08-19T06:22:06;17.93;;;13.40;;
71969;SDS011;59838;52.152;5.436;2022-08-19T06:24:33;22.17;;;14.45;;
71969;SDS011;59838;52.152;5.436;2022-08-19T06:27:00;25.02;;;15.82;;
71969;SDS011;59838;52.152;5.436;2022-08-19T06:29:33;22.30;;;16.00;;
71969;SDS011;59838;52.152;5.436;2022-08-19T06:32:14;25.73;;;16.98;;
71969;SDS011;59838;52.152;5.436;2022-08-19T06:34:42;24.33;;;16.00;;
71969;SDS011;59838;52.152;5.436;2022-08-19T06:37:15;26.75;;;16.50;;
71969;SDS011;59838;52.152;5.436;2022-08-19T06:39:42;24.98;;;16.15;;
71969;SDS011;59838;52.152;5.436;2022-08-19T06:42:10;24.23;;;16.65;;
71969;SDS011;59838;52.152;5.436;2022-08-19T06:44:49;25.73;;;16.27;;
71969;SDS011;59838;52.152;5.436;2022-08-19T06:47:19;26.87;;;17.87;;
71969;SDS011;59838;52.152;5.436;2022-08-19T06:49:55;30.55;;;19.10;;
71969;SDS011;59838;52.152;5.436;2022-08-19T06:52:29;32.80;;;20.23;;
71969;SDS011;59838;52.152;5.436;2022-08-19T06:55:06;30.15;;;18.83;;
71969;SDS011;59838;52.152;5.436;2022-08-19T06:57:33;35.42;;;20.73;;
71969;SDS011;59838;52.152;5.436;2022-08-19T07:00:00;36.10;;;20.47;;
71969;SDS011;59838;52.152;5.436;2022-08-19T07:02:37;34.17;;;21.23;;
71969;SDS011;59838;52.152;5.436;2022-08-19T07:05:06;32.90;;;19.83;;
71969;SDS011;59838;52.152;5.436;2022-08-19T07:07:41;35.63;;;20.42;;
71969;SDS011;59838;52.152;5.436;2022-08-19T07:10:12;34.08;;;20.13;;
71969;SDS011;59838;52.152;5.436;2022-08-19T07:12:45;42.40;;;20.67;;
71969;SDS011;59838;52.152;5.436;2022-08-19T07:15:14;44.05;;;20.85;;
71969;SDS011;59838;52.152;5.436;2022-08-19T07:17:48;43.92;;;23.02;;
71969;SDS011;59838;52.152;5.436;2022-08-19T07:20:22;44.05;;;22.08;;
71969;SDS011;59838;52.152;5.436;2022-08-19T07:22:53;42.13;;;21.50;;
71969;SDS011;59838;52.152;5.436;2022-08-19T07:25:20;45.83;;;22.40;;
71969;SDS011;59838;52.152;5.436;2022-08-19T07:27:58;48.00;;;23.65;;
71969;SDS011;59838;52.152;5.436;2022-08-19T07:30:26;48.42;;;23.00;;
71969;SDS011;59838;52.152;5.436;2022-08-19T07:32:59;48.78;;;23.33;;
71969;SDS011;59838;52.152;5.436;2022-08-19T07:35:28;53.10;;;24.73;;
71969;SDS011;59838;52.152;5.436;2022-08-19T07:38:04;43.90;;;22.10;;
71969;SDS011;59838;52.152;5.436;2022-08-19T07:40:30;47.30;;;24.08;;
71969;SDS011;59838;52.152;5.436;2022-08-19T07:42:57;45.13;;;23.00;;
71969;SDS011;59838;52.152;5.436;2022-08-19T07:45:30;43.38;;;22.13;;
71969;SDS011;59838;52.152;5.436;2022-08-19T07:48:04;44.38;;;23.20;;
71969;SDS011;59838;52.152;5.436;2022-08-19T07:50:38;46.30;;;23.40;;
71969;SDS011;59838;52.152;5.436;2022-08-19T07:53:12;47.20;;;22.73;;
71969;SDS011;59838;52.152;5.436;2022-08-19T07:55:39;44.38;;;22.58;;
71969;SDS011;59838;52.152;5.436;2022-08-19T07:58:20;43.95;;;23.20;;
71969;SDS011;59838;52.152;5.436;2022-08-19T08:00:54;43.35;;;23.58;;
71969;SDS011;59838;52.152;5.436;2022-08-19T08:03:21;42.10;;;22.80;;
71969;SDS011;59838;52.152;5.436;2022-08-19T08:06:18;39.20;;;21.02;;
71969;SDS011;59838;52.152;5.436;2022-08-19T08:09:03;38.25;;;20.73;;
71969;SDS011;59838;52.152;5.436;2022-08-19T08:11:46;37.78;;;20.67;;
71969;SDS011;59838;52.152;5.436;2022-08-19T08:14:31;41.95;;;21.92;;
71969;SDS011;59838;52.152;5.436;2022-08-19T08:17:09;39.67;;;20.20;;
71969;SDS011;59838;52.152;5.436;2022-08-19T08:19:36;35.00;;;19.65;;
71969;SDS011;59838;52.152;5.436;2022-08-19T08:22:11;35.15;;;19.73;;
71969;SDS011;59838;52.152;5.436;2022-08-19T08:25:07;37.05;;;20.48;;
71969;SDS011;59838;52.152;5.436;2022-08-19T08:27:43;35.42;;;20.27;;
71969;SDS011;59838;52.152;5.436;2022-08-19T08:30:13;36.10;;;20.33;;
71969;SDS011;59838;52.152;5.436;2022-08-19T08:32:43;33.65;;;18.92;;
71969;SDS011;59838;52.152;5.436;2022-08-19T08:35:19;36.75;;;19.73;;
71969;SDS011;59838;52.152;5.436;2022-08-19T08:37:48;34.13;;;17.95;;
71969;SDS011;59838;52.152;5.436;2022-08-19T08:46:13;26.83;;;16.00;;
71969;SDS011;59838;52.152;5.436;2022-08-19T08:49:00;30.42;;;17.27;;
71969;SDS011;59838;52.152;5.436;2022-08-19T08:51:57;29.52;;;17.02;;
71969;SDS011;59838;52.152;5.436;2022-08-19T08:54:37;25.65;;;16.23;;
71969;SDS011;59838;52.152;5.436;2022-08-19T09:02:53;25.08;;;15.52;;
71969;SDS011;59838;52.152;5.436;2022-08-19T09:06:13;26.65;;;16.77;;
71969;SDS011;59838;52.152;5.436;2022-08-19T09:11:15;24.37;;;13.33;;
71969;SDS011;59838;52.152;5.436;2022-08-19T09:14:13;25.83;;;15.07;;
71969;SDS011;59838;52.152;5.436;2022-08-19T09:17:16;25.27;;;16.08;;
71969;SDS011;59838;52.152;5.436;2022-08-19T09:19:52;23.02;;;14.38;;
71969;SDS011;59838;52.152;5.436;2022-08-19T09:22:28;18.08;;;12.25;;
71969;SDS011;59838;52.152;5.436;2022-08-19T09:24:55;17.07;;;12.50;;
71969;SDS011;59838;52.152;5.436;2022-08-19T09:27:29;20.27;;;12.50;;
71969;SDS011;59838;52.152;5.436;2022-08-19T09:30:18;23.13;;;12.48;;
71969;SDS011;59838;52.152;5.436;2022-08-19T09:32:56;18.48;;;11.98;;
71969;SDS011;59838;52.152;5.436;2022-08-19T09:35:23;19.02;;;12.25;;
71969;SDS011;59838;52.152;5.436;2022-08-19T09:38:19;18.07;;;11.67;;
71969;SDS011;59838;52.152;5.436;2022-08-19T09:40:46;21.80;;;12.48;;
71969;SDS011;59838;52.152;5.436;2022-08-19T09:43:21;17.58;;;10.98;;
71969;SDS011;59838;52.152;5.436;2022-08-19T09:45:59;17.40;;;12.32;;
71969;SDS011;59838;52.152;5.436;2022-08-19T09:48:33;18.70;;;12.27;;
71969;SDS011;59838;52.152;5.436;2022-08-19T09:51:07;17.53;;;12.00;;
71969;SDS011;59838;52.152;5.436;2022-08-19T09:53:47;17.30;;;11.60;;
71969;SDS011;59838;52.152;5.436;2022-08-19T09:56:30;16.10;;;11.82;;
71969;SDS011;59838;52.152;5.436;2022-08-19T09:59:07;16.05;;;11.38;;
71969;SDS011;59838;52.152;5.436;2022-08-19T10:01:42;16.05;;;11.52;;
71969;SDS011;59838;52.152;5.436;2022-08-19T10:04:09;18.17;;;12.10;;
71969;SDS011;59838;52.152;5.436;2022-08-19T10:06:45;18.33;;;10.85;;
71969;SDS011;59838;52.152;5.436;2022-08-19T10:09:20;16.40;;;10.32;;
71969;SDS011;59838;52.152;5.436;2022-08-19T10:11:58;16.83;;;9.60;;
71969;SDS011;59838;52.152;5.436;2022-08-19T10:14:37;14.48;;;8.75;;
71969;SDS011;59838;52.152;5.436;2022-08-19T10:17:05;15.17;;;8.53;;
71969;SDS011;59838;52.152;5.436;2022-08-19T10:19:45;14.18;;;9.05;;
71969;SDS011;59838;52.152;5.436;2022-08-19T10:22:21;12.15;;;9.48;;
71969;SDS011;59838;52.152;5.436;2022-08-19T10:24:50;15.80;;;9.25;;
71969;SDS011;59838;52.152;5.436;2022-08-19T10:27:24;13.32;;;10.43;;
71969;SDS011;59838;52.152;5.436;2022-08-19T10:30:00;13.73;;;9.90;;
71969;SDS011;59838;52.152;5.436;2022-08-19T10:32:27;14.90;;;10.43;;
71969;SDS011;59838;52.152;5.436;2022-08-19T10:35:03;14.40;;;10.30;;
71969;SDS011;59838;52.152;5.436;2022-08-19T10:37:35;15.40;;;11.13;;
71969;SDS011;59838;52.152;5.436;2022-08-19T10:40:22;18.75;;;12.20;;
71969;SDS011;59838;52.152;5.436;2022-08-19T10:42:48;16.93;;;11.80;;
71969;SDS011;59838;52.152;5.436;2022-08-19T10:45:22;14.82;;;10.48;;
71969;SDS011;59838;52.152;5.436;2022-08-19T10:47:53;13.10;;;10.52;;
71969;SDS011;59838;52.152;5.436;2022-08-19T10:50:27;15.88;;;11.18;;
71969;SDS011;59838;52.152;5.436;2022-08-19T10:53:13;13.68;;;11.30;;
71969;SDS011;59838;52.152;5.436;2022-08-19T10:55:48;14.83;;;11.73;;
71969;SDS011;59838;52.152;5.436;2022-08-19T10:58:48;16.13;;;11.15;;
71969;SDS011;59838;52.152;5.436;2022-08-19T11:01:21;18.27;;;12.20;;
71969;SDS011;59838;52.152;5.436;2022-08-19T11:03:48;16.73;;;12.27;;
71969;SDS011;59838;52.152;5.436;2022-08-19T11:06:22;18.23;;;11.95;;
71969;SDS011;59838;52.152;5.436;2022-08-19T11:08:51;13.63;;;11.20;;
71969;SDS011;59838;52.152;5.436;2022-08-19T11:11:25;21.92;;;12.75;;
71969;SDS011;59838;52.152;5.436;2022-08-19T11:13:52;13.32;;;11.82;;
71969;SDS011;59838;52.152;5.436;2022-08-19T11:16:21;15.18;;;11.38;;
71969;SDS011;59838;52.152;5.436;2022-08-19T11:18:57;16.10;;;12.48;;
71969;SDS011;59838;52.152;5.436;2022-08-19T11:21:29;19.30;;;13.10;;
71969;SDS011;59838;52.152;5.436;2022-08-19T11:24:11;18.55;;;12.32;;
71969;SDS011;59838;52.152;5.436;2022-08-19T11:26:42;15.35;;;12.93;;
71969;SDS011;59838;52.152;5.436;2022-08-19T11:29:17;16.58;;;13.80;;
71969;SDS011;59838;52.152;5.436;2022-08-19T11:31:47;17.63;;;13.05;;
71969;SDS011;59838;52.152;5.436;2022-08-19T11:34:23;14.67;;;11.80;;
71969;SDS011;59838;52.152;5.436;2022-08-19T11:36:53;16.88;;;12.25;;
71969;SDS011;59838;52.152;5.436;2022-08-19T11:39:33;16.52;;;12.07;;
71969;SDS011;59838;52.152;5.436;2022-08-19T11:42:01;18.83;;;14.43;;
71969;SDS011;59838;52.152;5.436;2022-08-19T11:44:56;21.63;;;16.48;;
71969;SDS011;59838;52.152;5.436;2022-08-19T11:47:23;19.83;;;14.53;;
71969;SDS011;59838;52.152;5.436;2022-08-19T11:49:50;18.80;;;13.77;;
71969;SDS011;59838;52.152;5.436;2022-08-19T11:52:23;21.90;;;16.10;;
71969;SDS011;59838;52.152;5.436;2022-08-19T11:54:50;20.83;;;16.45;;
71969;SDS011;59838;52.152;5.436;2022-08-19T11:57:23;22.58;;;16.90;;
71969;SDS011;59838;52.152;5.436;2022-08-19T11:59:52;21.80;;;14.70;;
71969;SDS011;59838;52.152;5.436;2022-08-19T12:02:19;25.60;;;14.35;;
71969;SDS011;59838;52.152;5.436;2022-08-19T12:04:52;22.42;;;14.77;;
71969;SDS011;59838;52.152;5.436;2022-08-19T12:07:19;17.98;;;12.77;;
71969;SDS011;59838;52.152;5.436;2022-08-19T12:09:54;17.55;;;12.07;;
71969;SDS011;59838;52.152;5.436;2022-08-19T12:12:28;20.13;;;13.87;;
71969;SDS011;59838;52.152;5.436;2022-08-19T12:15:02;15.88;;;12.32;;
71969;SDS011;59838;52.152;5.436;2022-08-19T12:17:29;19.98;;;12.00;;
71969;SDS011;59838;52.152;5.436;2022-08-19T12:20:04;19.73;;;14.20;;
71969;SDS011;59838;52.152;5.436;2022-08-19T12:22:32;22.05;;;13.07;;
71969;SDS011;59838;52.152;5.436;2022-08-19T12:25:05;18.00;;;12.43;;
71969;SDS011;59838;52.152;5.436;2022-08-19T12:27:40;20.10;;;13.13;;
71969;SDS011;59838;52.152;5.436;2022-08-19T12:30:15;18.35;;;13.43;;
71969;SDS011;59838;52.152;5.436;2022-08-19T12:32:48;22.90;;;14.52;;
71969;SDS011;59838;52.152;5.436;2022-08-19T12:35:14;29.65;;;14.70;;
71969;SDS011;59838;52.152;5.436;2022-08-19T12:37:47;18.63;;;13.37;;
71969;SDS011;59838;52.152;5.436;2022-08-19T12:40:22;20.75;;;14.38;;
71969;SDS011;59838;52.152;5.436;2022-08-19T12:42:55;17.63;;;12.82;;
71969;SDS011;59838;52.152;5.436;2022-08-19T12:45:21;20.20;;;13.77;;
71969;SDS011;59838;52.152;5.436;2022-08-19T12:47:48;25.13;;;12.57;;
71969;SDS011;59838;52.152;5.436;2022-08-19T12:50:22;14.20;;;10.63;;
71969;SDS011;59838;52.152;5.436;2022-08-19T12:52:49;9.57;;;8.48;;
71969;SDS011;59838;52.152;5.436;2022-08-19T12:55:22;8.75;;;7.63;;
71969;SDS011;59838;52.152;5.436;2022-08-19T12:58:02;10.43;;;7.97;;
71969;SDS011;59838;52.152;5.436;2022-08-19T13:00:29;10.13;;;8.77;;
71969;SDS011;59838;52.152;5.436;2022-08-19T13:03:06;10.27;;;8.67;;
71969;SDS011;59838;52.152;5.436;2022-08-19T13:05:33;9.52;;;8.63;;
71969;SDS011;59838;52.152;5.436;2022-08-19T13:08:06;9.05;;;8.25;;
71969;SDS011;59838;52.152;5.436;2022-08-19T13:10:39;8.43;;;7.28;;
71969;SDS011;59838;52.152;5.436;2022-08-19T13:13:08;9.05;;;8.00;;
71969;SDS011;59838;52.152;5.436;2022-08-19T13:15:42;8.43;;;7.57;;
71969;SDS011;59838;52.152;5.436;2022-08-19T13:18:11;12.68;;;8.85;;
71969;SDS011;59838;52.152;5.436;2022-08-19T13:20:48;14.88;;;10.65;;
71969;SDS011;59838;52.152;5.436;2022-08-19T13:23:18;9.85;;;8.85;;
71969;SDS011;59838;52.152;5.436;2022-08-19T13:25:56;10.82;;;8.20;;
71969;SDS011;59838;52.152;5.436;2022-08-19T13:28:24;14.03;;;9.83;;
71969;SDS011;59838;52.152;5.436;2022-08-19T13:30:58;18.70;;;10.77;;
71969;SDS011;59838;52.152;5.436;2022-08-19T13:33:43;14.55;;;11.68;;
71969;SDS011;59838;52.152;5.436;2022-08-19T13:36:18;16.05;;;12.38;;
71969;SDS011;59838;52.152;5.436;2022-08-19T13:38:44;16.48;;;13.60;;
71969;SDS011;59838;52.152;5.436;2022-08-19T13:41:18;20.43;;;13.57;;
71969;SDS011;59838;52.152;5.436;2022-08-19T13:43:45;23.25;;;14.68;;
71969;SDS011;59838;52.152;5.436;2022-08-19T13:46:20;18.00;;;13.98;;
71969;SDS011;59838;52.152;5.436;2022-08-19T13:48:47;21.00;;;14.65;;
71969;SDS011;59838;52.152;5.436;2022-08-19T13:51:15;20.77;;;14.73;;
71969;SDS011;59838;52.152;5.436;2022-08-19T13:53:50;18.07;;;13.83;;
71969;SDS011;59838;52.152;5.436;2022-08-19T13:56:18;15.90;;;13.48;;
71969;SDS011;59838;52.152;5.436;2022-08-19T13:58:51;20.08;;;13.18;;
71969;SDS011;59838;52.152;5.436;2022-08-19T14:01:24;14.35;;;12.52;;
71969;SDS011;59838;52.152;5.436;2022-08-19T14:03:52;15.75;;;13.43;;
71969;SDS011;59838;52.152;5.436;2022-08-19T14:06:26;16.43;;;12.67;;
71969;SDS011;59838;52.152;5.436;2022-08-19T14:08:55;14.90;;;13.02;;
71969;SDS011;59838;52.152;5.436;2022-08-19T14:11:28;19.60;;;12.60;;
71969;SDS011;59838;52.152;5.436;2022-08-19T14:13:55;16.88;;;12.82;;
71969;SDS011;59838;52.152;5.436;2022-08-19T14:16:22;18.25;;;13.70;;
71969;SDS011;59838;52.152;5.436;2022-08-19T14:18:56;23.27;;;14.37;;
71969;SDS011;59838;52.152;5.436;2022-08-19T14:21:23;16.88;;;13.38;;
71969;SDS011;59838;52.152;5.436;2022-08-19T14:23:58;18.17;;;13.10;;
71969;SDS011;59838;52.152;5.436;2022-08-19T14:26:24;20.60;;;13.10;;
71969;SDS011;59838;52.152;5.436;2022-08-19T14:28:58;14.40;;;12.60;;
71969;SDS011;59838;52.152;5.436;2022-08-19T14:34:30;16.58;;;9.13;;
71969;SDS011;59838;52.152;5.436;2022-08-19T14:37:04;10.82;;;8.30;;
71969;SDS011;59838;52.152;5.436;2022-08-19T14:39:42;13.23;;;8.90;;
71969;SDS011;59838;52.152;5.436;2022-08-19T14:42:17;12.35;;;9.43;;
71969;SDS011;59838;52.152;5.436;2022-08-19T14:44:44;20.87;;;9.27;;
71969;SDS011;59838;52.152;5.436;2022-08-19T14:47:18;11.18;;;8.65;;
71969;SDS011;59838;52.152;5.436;2022-08-19T14:50:00;11.07;;;8.43;;
71969;SDS011;59838;52.152;5.436;2022-08-19T14:52:30;13.77;;;8.60;;
71969;SDS011;59838;52.152;5.436;2022-08-19T14:55:10;8.35;;;7.50;;
71969;SDS011;59838;52.152;5.436;2022-08-19T14:57:36;31.17;;;9.20;;
71969;SDS011;59838;52.152;5.436;2022-08-19T15:00:18;7.78;;;6.88;;
71969;SDS011;59838;52.152;5.436;2022-08-19T15:02:44;6.82;;;5.60;;
71969;SDS011;59838;52.152;5.436;2022-08-19T15:05:18;7.28;;;5.75;;
71969;SDS011;59838;52.152;5.436;2022-08-19T15:07:45;6.85;;;5.97;;
71969;SDS011;59838;52.152;5.436;2022-08-19T15:10:12;7.63;;;6.53;;
71969;SDS011;59838;52.152;5.436;2022-08-19T15:12:48;9.98;;;6.00;;
71969;SDS011;59838;52.152;5.436;2022-08-19T15:15:17;6.50;;;5.85;;
71969;SDS011;59838;52.152;5.436;2022-08-19T15:17:50;6.55;;;5.35;;
71969;SDS011;59838;52.152;5.436;2022-08-19T15:20:17;6.53;;;5.50;;
71969;SDS011;59838;52.152;5.436;2022-08-19T15:22:51;8.20;;;5.57;;
71969;SDS011;59838;52.152;5.436;2022-08-19T15:25:24;6.60;;;5.57;;
71969;SDS011;59838;52.152;5.436;2022-08-19T15:27:51;5.90;;;5.35;;
71969;SDS011;59838;52.152;5.436;2022-08-19T15:30:20;8.15;;;5.10;;
71969;SDS011;59838;52.152;5.436;2022-08-19T15:32:57;8.48;;;5.10;;